Time;durP1;ratioP1;P1;durP2;ratioP2;P2;SDS_P1;SDS_P2;PMS_P1;PMS_P2;Temp;Humidity;BMP_temperature;BMP_pressure;BME280_temperature;BME280_humidity;BME280_pressure;Samples;Min_cycle;Max_cycle;Signal;HPM_P1;HPM_P2
2023/12/06 00:00:36;;;;;;;1.25;1.20;;;;;;;2.46;100.00;100711.00;5062051;28;20120;-74
2023/12/06 00:03:03;;;;;;;0.70;0.70;;;;;;;2.63;100.00;100733.22;5055990;28;20064;-76
2023/12/06 00:05:29;;;;;;;0.73;0.73;;;;;;;2.96;100.00;100797.50;5064435;28;20047;-74
2023/12/06 00:07:55;;;;;;;3.60;3.40;;;;;;;2.94;100.00;100792.25;5065266;28;20037;-75
2023/12/06 00:10:20;;;;;;;4.63;4.38;;;;;;;2.91;100.00;100786.06;5063747;28;20094;-74
2023/12/06 00:12:46;;;;;;;0.70;0.70;;;;;;;2.89;100.00;100780.81;5061672;28;20393;-76
2023/12/06 00:15:11;;;;;;;2.67;2.35;;;;;;;3.07;100.00;100813.44;5064643;28;20565;-72
2023/12/06 00:17:37;;;;;;;8.23;7.78;;;;;;;3.20;100.00;100836.38;5063646;28;21353;-74
2023/12/06 00:20:02;;;;;;;1.35;1.25;;;;;;;2.82;100.00;100739.97;5064290;28;20040;-75
2023/12/06 00:22:28;;;;;;;0.52;0.52;;;;;;;3.54;100.00;100855.78;5058985;28;20052;-74
2023/12/06 00:24:54;;;;;;;0.30;0.30;;;;;;;3.50;100.00;100830.53;5063929;28;20071;-75
2023/12/06 00:27:20;;;;;;;0.22;0.22;;;;;;;2.98;100.00;100746.59;5062802;28;20052;-74
2023/12/06 00:29:46;;;;;;;0.65;0.65;;;;;;;3.67;100.00;100844.97;5061352;28;20047;-75
2023/12/06 00:32:11;;;;;;;1.10;1.05;;;;;;;3.12;100.00;100749.69;5059440;28;20032;-77
2023/12/06 00:34:37;;;;;;;2.83;2.70;;;;;;;3.27;100.00;100770.94;5066658;28;20555;-73
2023/12/06 00:37:02;;;;;;;14.25;13.07;;;;;;;3.59;100.00;100820.50;5062644;28;20048;-75
2023/12/06 00:39:28;;;;;;;7.35;7.00;;;;;;;3.12;100.00;100714.25;5062231;28;20072;-74
2023/12/06 00:41:53;;;;;;;1.92;1.88;;;;;;;3.32;100.00;100738.25;5059536;28;20852;-73
2023/12/06 00:44:19;;;;;;;0.40;0.40;;;;;;;4.02;100.00;100840.97;5044704;28;20445;-74
2023/12/06 00:46:45;;;;;;;4.68;4.40;;;;;;;3.46;100.00;100736.16;5063979;28;20041;-74
2023/12/06 00:49:11;;;;;;;9.20;6.97;;;;;;;3.65;100.00;100823.28;5032983;28;20049;-74
2023/12/06 00:51:37;;;;;;;0.82;0.82;;;;;;;3.62;100.00;100830.09;5064585;28;20155;-74
2023/12/06 00:54:02;;;;;;;0.60;0.60;;;;;;;2.87;100.00;100722.88;5046985;28;20040;-73
2023/12/06 00:56:28;;;;;;;1.60;1.40;;;;;;;3.61;100.00;100818.84;5057982;28;20102;-76
2023/12/06 00:58:54;;;;;;;1.42;1.33;;;;;;;3.83;100.00;100837.72;5064351;28;20033;-74
2023/12/06 01:01:19;;;;;;;0.45;0.45;;;;;;;3.81;100.00;100835.94;5062141;28;20508;-75
2023/12/06 01:03:45;;;;;;;8.88;7.10;;;;;;;3.33;100.00;100742.66;5064934;28;20589;-77
2023/12/06 01:06:10;;;;;;;0.30;0.30;;;;;;;3.14;100.00;100720.38;5064619;28;20455;-75
2023/12/06 01:08:36;;;;;;;0.73;0.73;;;;;;;3.33;100.00;100721.03;5040704;28;20559;-77
2023/12/06 01:11:01;;;;;;;5.95;5.57;;;;;;;3.43;100.00;100754.22;5056493;28;20056;-75
2023/12/06 01:13:27;;;;;;;1.13;1.05;;;;;;;3.32;100.00;100738.25;5041194;28;20152;-75
2023/12/06 01:15:52;;;;;;;2.20;2.10;;;;;;;3.68;100.00;100771.50;5061951;28;20697;-74
2023/12/06 01:18:18;;;;;;;0.88;0.88;;;;;;;3.63;100.00;100744.53;5059060;28;20519;-73
2023/12/06 01:20:43;;;;;;;4.55;4.32;;;;;;;3.48;100.00;100715.47;5058955;28;20045;-74
2023/12/06 01:23:09;;;;;;;0.40;0.40;;;;;;;3.47;100.00;100717.19;5059095;28;21470;-74
2023/12/06 01:25:34;;;;;;;11.27;9.60;;;;;;;3.51;100.00;100697.38;5062894;28;20119;-73
2023/12/06 01:28:00;;;;;;;9.00;8.25;;;;;;;3.50;100.00;100691.34;5060981;28;20067;-73
2023/12/06 01:30:26;;;;;;;7.93;6.93;;;;;;;3.71;100.00;100742.19;5060215;28;20047;-75
2023/12/06 01:32:51;;;;;;;0.93;0.93;;;;;;;3.80;100.00;100748.53;5059695;28;20072;-77
2023/12/06 01:35:17;;;;;;;1.15;1.05;;;;;;;4.22;100.00;100807.00;5063519;28;20033;-73
2023/12/06 01:37:42;;;;;;;3.53;3.40;;;;;;;3.79;100.00;100704.38;5063968;28;20123;-73
2023/12/06 01:40:08;;;;;;;0.65;0.65;;;;;;;4.15;100.00;100759.19;5062091;28;20056;-74
2023/12/06 01:42:35;;;;;;;1.75;1.65;;;;;;;3.54;100.00;100674.16;5061612;28;20056;-74
2023/12/06 01:45:01;;;;;;;1.88;1.77;;;;;;;3.86;100.00;100785.91;5060540;28;20702;-74
2023/12/06 01:47:29;;;;;;;0.40;0.40;;;;;;;3.39;100.00;100684.91;5061231;28;20131;-74
2023/12/06 01:49:58;;;;;;;1.50;1.40;;;;;;;3.32;100.00;100676.03;5062247;28;20119;-74
2023/12/06 01:52:24;;;;;;;6.28;5.80;;;;;;;4.06;100.00;100760.63;5058377;28;20044;-74
2023/12/06 01:54:51;;;;;;;2.70;2.60;;;;;;;3.76;100.00;100731.09;5042082;28;20041;-73
2023/12/06 01:57:17;;;;;;;0.98;0.52;;;;;;;3.57;100.00;100741.72;5063910;28;20153;-76
2023/12/06 01:59:43;;;;;;;0.30;0.30;;;;;;;2.93;100.00;100623.75;5041099;28;20547;-76
2023/12/06 02:02:09;;;;;;;2.92;2.83;;;;;;;3.06;100.00;100645.75;5059767;28;20087;-75
2023/12/06 02:04:38;;;;;;;1.55;1.45;;;;;;;3.59;100.00;100722.78;5062260;28;20033;-75
2023/12/06 02:07:04;;;;;;;7.75;7.43;;;;;;;3.63;100.00;100735.84;5058446;28;20473;-75
2023/12/06 02:09:29;;;;;;;0.40;0.40;;;;;;;3.62;100.00;100731.50;5044886;28;20052;-76
2023/12/06 02:11:55;;;;;;;1.10;1.00;;;;;;;3.78;100.00;100720.78;5059220;28;20054;-74
2023/12/06 02:14:21;;;;;;;0.32;0.32;;;;;;;4.01;100.00;100755.28;5055461;28;20044;-74
2023/12/06 02:16:47;;;;;;;2.78;2.60;;;;;;;3.95;100.00;100737.75;5063229;28;20256;-75
2023/12/06 02:19:18;;;;;;;2.45;2.35;;;;;;;3.43;100.00;100658.25;5060668;28;20186;-75
2023/12/06 02:21:44;;;;;;;0.30;0.30;;;;;;;3.47;100.00;100664.44;5036074;28;20143;-74
2023/12/06 02:24:11;;;;;;;2.05;1.95;;;;;;;3.42;100.00;100643.53;5063723;28;20076;-74
2023/12/06 02:26:37;;;;;;;1.30;1.20;;;;;;;4.05;100.00;100725.97;5067389;28;20129;-73
2023/12/06 02:29:02;;;;;;;13.05;2.80;;;;;;;4.15;100.00;100720.22;5062658;28;20177;-76
2023/12/06 02:31:28;;;;;;;3.50;2.28;;;;;;;4.23;100.00;100739.50;5062941;28;20048;-74
2023/12/06 02:33:54;;;;;;;0.40;0.40;;;;;;;3.67;100.00;100641.69;5064242;28;20395;-75
2023/12/06 02:36:22;;;;;;;3.35;1.25;;;;;;;4.26;100.00;100735.25;5043337;28;20056;-75
2023/12/06 02:38:48;;;;;;;5.43;5.15;;;;;;;4.32;100.00;100735.44;5064760;28;20052;-74
2023/12/06 02:41:18;;;;;;;1.90;1.80;;;;;;;3.74;100.00;100635.88;5061623;28;20219;-75
2023/12/06 02:43:44;;;;;;;0.45;0.45;;;;;;;4.25;100.00;100718.78;5060815;28;20032;-75
2023/12/06 02:46:11;;;;;;;1.23;1.13;;;;;;;3.86;100.00;100701.13;5063890;28;20122;-73
2023/12/06 02:48:36;;;;;;;0.38;0.38;;;;;;;3.88;100.00;100683.88;5058936;28;20059;-76
2023/12/06 02:51:02;;;;;;;2.25;2.15;;;;;;;3.16;100.00;100552.78;5059905;28;20056;-74
2023/12/06 02:53:27;;;;;;;0.47;0.47;;;;;;;4.13;100.00;100734.00;5062576;28;20052;-73
2023/12/06 02:55:53;;;;;;;0.52;0.52;;;;;;;3.38;100.00;100634.75;5065587;28;20115;-74
2023/12/06 02:58:19;;;;;;;9.98;9.43;;;;;;;3.75;100.00;100661.88;5062655;28;20292;-77
2023/12/06 03:00:44;;;;;;;0.30;0.30;;;;;;;3.73;100.00;100699.00;5064620;28;20040;-73
2023/12/06 03:03:10;;;;;;;0.50;0.50;;;;;;;3.64;100.00;100676.22;5060705;28;20044;-73
2023/12/06 03:05:36;;;;;;;0.75;0.75;;;;;;;3.98;100.00;100711.91;5062833;28;20048;-72
2023/12/06 03:08:01;;;;;;;0.57;0.57;;;;;;;3.65;100.00;100697.84;5066228;28;20523;-75
2023/12/06 03:10:27;;;;;;;18.13;14.95;;;;;;;3.62;100.00;100644.16;5059340;28;20075;-72
2023/12/06 03:12:52;;;;;;;1.67;1.33;;;;;;;3.12;100.00;100626.13;5064503;28;20127;-75
2023/12/06 03:15:18;;;;;;;2.17;2.10;;;;;;;3.51;100.00;100706.09;5063131;28;20040;-76
2023/12/06 03:17:44;;;;;;;1.42;1.27;;;;;;;3.82;100.00;100709.66;5064493;28;20052;-74
2023/12/06 03:20:10;;;;;;;0.43;0.43;;;;;;;3.85;100.00;100721.88;5062931;28;20048;-75
2023/12/06 03:22:36;;;;;;;0.60;0.60;;;;;;;3.38;100.00;100633.88;5060227;28;20119;-73
2023/12/06 03:25:02;;;;;;;1.15;1.15;;;;;;;3.31;100.00;100683.78;5060728;28;20048;-73
2023/12/06 03:27:27;;;;;;;0.35;0.35;;;;;;;3.35;100.00;100667.50;5058161;28;20044;-75
2023/12/06 03:29:53;;;;;;;0.40;0.40;;;;;;;3.02;100.00;100646.47;5058910;28;20048;-75
2023/12/06 03:32:18;;;;;;;0.50;0.50;;;;;;;3.27;100.00;100680.19;5044044;28;20041;-76
2023/12/06 03:34:44;;;;;;;2.45;1.77;;;;;;;2.63;100.00;100544.13;5063924;28;20036;-74
2023/12/06 03:37:09;;;;;;;0.70;0.70;;;;;;;3.21;100.00;100640.19;5060841;28;20469;-74
2023/12/06 03:39:35;;;;;;;1.23;1.05;;;;;;;3.47;100.00;100667.03;5061091;28;20041;-75
2023/12/06 03:42:00;;;;;;;1.33;1.30;;;;;;;3.38;100.00;100684.03;5059051;28;20429;-74
2023/12/06 03:44:26;;;;;;;1.38;1.38;;;;;;;3.57;100.00;100666.47;5060055;28;20041;-76
2023/12/06 03:46:51;;;;;;;0.82;0.75;;;;;;;3.82;100.00;100733.03;5060018;28;20393;-73
2023/12/06 03:49:17;;;;;;;0.47;0.47;;;;;;;3.96;100.00;100752.53;5034833;28;20040;-75
2023/12/06 03:51:42;;;;;;;0.43;0.43;;;;;;;3.99;100.00;100754.34;5056072;28;20071;-73
2023/12/06 03:54:08;;;;;;;5.60;5.40;;;;;;;4.02;100.00;100770.00;5060885;28;20155;-74
2023/12/06 03:56:33;;;;;;;1.05;1.02;;;;;;;3.54;100.00;100720.88;5059060;28;20033;-73
2023/12/06 03:58:59;;;;;;;1.70;1.38;;;;;;;3.70;100.00;100763.75;5057706;28;20029;-75
2023/12/06 04:01:24;;;;;;;1.88;1.65;;;;;;;3.83;100.00;100775.44;5054844;28;20547;-74
2023/12/06 04:03:51;;;;;;;0.63;0.63;;;;;;;3.84;100.00;100766.81;5055217;28;20689;-74
2023/12/06 04:06:16;;;;;;;4.57;4.13;;;;;;;3.94;100.00;100779.28;5054556;28;20049;-75
2023/12/06 04:08:42;;;;;;;1.45;1.35;;;;;;;4.14;100.00;100782.50;5059212;28;20189;-74
2023/12/06 04:11:08;;;;;;;5.57;5.20;;;;;;;4.12;100.00;100784.16;5056344;28;20460;-78
2023/12/06 04:13:33;;;;;;;0.45;0.45;;;;;;;3.69;100.00;100691.94;5064042;28;20480;-73
2023/12/06 04:15:59;;;;;;;2.25;2.17;;;;;;;3.81;100.00;100698.38;5054013;28;20048;-74
2023/12/06 04:18:24;;;;;;;0.45;0.45;;;;;;;4.31;100.00;100796.91;5053446;28;20664;-74
2023/12/06 04:20:50;;;;;;;0.85;0.85;;;;;;;4.00;100.00;100744.00;5061064;28;20106;-75
2023/12/06 04:23:15;;;;;;;12.32;6.00;;;;;;;3.73;100.00;100671.31;5061864;28;20044;-76
2023/12/06 04:25:41;;;;;;;0.50;0.50;;;;;;;3.85;100.00;100695.91;5055891;28;20349;-74
2023/12/06 04:28:07;;;;;;;0.82;0.82;;;;;;;3.59;100.00;100714.97;5044046;28;20403;-73
2023/12/06 04:30:32;;;;;;;23.40;17.88;;;;;;;3.54;100.00;100689.72;5056610;28;20051;-75
2023/12/06 04:32:58;;;;;;;21.00;18.75;;;;;;;4.01;100.00;100779.50;5052743;28;20092;-74
2023/12/06 04:35:23;;;;;;;0.40;0.40;;;;;;;3.81;100.00;100695.78;5061239;28;20048;-74
2023/12/06 04:37:49;;;;;;;0.88;0.88;;;;;;;4.11;100.00;100798.00;5062647;28;21006;-76
2023/12/06 04:40:14;;;;;;;0.55;0.55;;;;;;;3.50;100.00;100701.72;5052047;28;20385;-74
2023/12/06 04:42:40;;;;;;;1.25;1.25;;;;;;;3.46;100.00;100709.34;5057976;28;20846;-74
2023/12/06 04:45:06;;;;;;;0.40;0.40;;;;;;;4.18;100.00;100786.97;5060476;28;20045;-74
2023/12/06 04:47:31;;;;;;;1.40;1.30;;;;;;;4.21;100.00;100815.63;5054439;28;20058;-73
2023/12/06 04:49:57;;;;;;;0.73;0.73;;;;;;;4.25;100.00;100781.13;5061891;28;20072;-74
2023/12/06 04:52:24;;;;;;;1.20;1.15;;;;;;;3.55;100.00;100694.94;5058098;28;20140;-76
2023/12/06 04:54:50;;;;;;;0.30;0.30;;;;;;;3.68;100.00;100672.91;5058585;28;20049;-75
2023/12/06 04:57:15;;;;;;;0.20;0.20;;;;;;;4.38;100.00;100805.78;5057494;28;20048;-74
2023/12/06 04:59:41;;;;;;;0.30;0.30;;;;;;;4.11;100.00;100762.50;5060506;28;20289;-74
2023/12/06 05:02:07;;;;;;;0.20;0.20;;;;;;;3.57;100.00;100687.22;5039015;28;20032;-74
2023/12/06 05:04:33;;;;;;;1.95;1.85;;;;;;;3.78;100.00;100762.31;5055674;28;20036;-74
2023/12/06 05:06:59;;;;;;;5.20;4.72;;;;;;;3.51;100.00;100682.75;5042464;28;20178;-74
2023/12/06 05:09:24;;;;;;;0.38;0.38;;;;;;;3.53;100.00;100713.91;5059845;28;20076;-75
2023/12/06 05:11:50;;;;;;;2.13;2.03;;;;;;;4.06;100.00;100813.41;5062244;28;20043;-74
2023/12/06 05:14:16;;;;;;;0.30;0.30;;;;;;;3.61;100.00;100759.16;5060347;28;20131;-73
2023/12/06 05:16:41;;;;;;;0.40;0.40;;;;;;;3.79;100.00;100802.97;5045140;28;20045;-74
2023/12/06 05:19:07;;;;;;;0.30;0.30;;;;;;;3.89;100.00;100793.81;5056552;28;20048;-76
2023/12/06 05:21:32;;;;;;;0.88;0.88;;;;;;;3.81;100.00;100807.41;5053082;28;20072;-74
2023/12/06 05:23:58;;;;;;;1.58;1.48;;;;;;;3.97;100.00;100776.75;5058455;28;20060;-74
2023/12/06 05:26:25;;;;;;;1.25;1.25;;;;;;;3.81;100.00;100790.94;5055975;28;20372;-75
2023/12/06 05:28:52;;;;;;;1.65;1.55;;;;;;;3.66;100.00;100765.38;5050176;28;20048;-76
2023/12/06 05:31:17;;;;;;;0.47;0.47;;;;;;;3.86;100.00;100797.16;5053427;28;20097;-75
2023/12/06 05:33:43;;;;;;;0.50;0.50;;;;;;;3.43;100.00;100715.31;5055281;28;20151;-74
2023/12/06 05:36:09;;;;;;;0.20;0.20;;;;;;;3.26;100.00;100716.47;5056370;28;20049;-75
2023/12/06 05:38:34;;;;;;;0.85;0.85;;;;;;;3.72;100.00;100764.69;5054282;28;20068;-77
2023/12/06 05:41:00;;;;;;;0.77;0.77;;;;;;;3.23;100.00;100699.09;5056676;28;20425;-73
2023/12/06 05:43:26;;;;;;;0.30;0.30;;;;;;;3.85;100.00;100787.63;5060018;28;20041;-75
2023/12/06 05:45:51;;;;;;;0.70;0.70;;;;;;;3.12;100.00;100679.69;5055771;28;20165;-75
2023/12/06 05:48:17;;;;;;;0.82;0.82;;;;;;;3.58;100.00;100772.00;5054994;28;20526;-76
2023/12/06 05:50:42;;;;;;;0.30;0.30;;;;;;;3.22;100.00;100702.50;5053427;28;20391;-75
2023/12/06 05:53:08;;;;;;;7.32;6.85;;;;;;;3.69;100.00;100788.81;5058979;28;20033;-75
2023/12/06 05:55:33;;;;;;;0.57;0.57;;;;;;;3.28;100.00;100715.69;5045443;28;20146;-75
2023/12/06 05:57:59;;;;;;;0.30;0.30;;;;;;;3.44;100.00;100768.06;5053825;28;20451;-74
2023/12/06 06:00:25;;;;;;;0.40;0.40;;;;;;;3.65;100.00;100793.84;5057014;28;20083;-74
2023/12/06 06:02:52;;;;;;;0.45;0.45;;;;;;;3.86;100.00;100820.53;5061324;28;20044;-73
2023/12/06 06:05:18;;;;;;;0.63;0.63;;;;;;;3.75;100.00;100812.41;5056629;28;20063;-76
2023/12/06 06:07:44;;;;;;;12.15;11.02;;;;;;;3.38;100.00;100750.59;5053284;28;20051;-76
2023/12/06 06:10:10;;;;;;;9.82;8.98;;;;;;;3.08;100.00;100693.34;5052158;28;20045;-76
2023/12/06 06:12:35;;;;;;;4.18;3.97;;;;;;;3.55;100.00;100775.38;5058644;28;20040;-75
2023/12/06 06:15:01;;;;;;;0.68;0.55;;;;;;;3.57;100.00;100781.50;5042930;28;20068;-73
2023/12/06 06:17:27;;;;;;;0.32;0.32;;;;;;;3.19;100.00;100725.72;5058805;28;20381;-73
2023/12/06 06:19:52;;;;;;;0.50;0.50;;;;;;;3.44;100.00;100743.03;5062951;28;20044;-75
2023/12/06 06:22:18;;;;;;;2.70;2.60;;;;;;;3.21;100.00;100702.44;5057486;28;20127;-74
2023/12/06 06:24:43;;;;;;;3.53;3.33;;;;;;;3.58;100.00;100779.78;5060433;28;20124;-74
2023/12/06 06:27:09;;;;;;;0.77;0.77;;;;;;;3.88;100.00;100811.09;5052185;28;20542;-74
2023/12/06 06:29:34;;;;;;;0.30;0.30;;;;;;;3.27;100.00;100711.31;5058547;28;20040;-75
2023/12/06 06:32:00;;;;;;;2.05;1.95;;;;;;;3.91;100.00;100812.91;5062914;28;20369;-76
2023/12/06 06:34:26;;;;;;;0.40;0.40;;;;;;;3.76;100.00;100795.97;5040226;28;20092;-76
2023/12/06 06:36:51;;;;;;;0.40;0.40;;;;;;;3.79;100.00;100796.09;5035285;28;20056;-75
2023/12/06 06:39:17;;;;;;;6.93;6.57;;;;;;;3.66;100.00;100761.91;5053913;28;20048;-76
2023/12/06 06:41:42;;;;;;;0.40;0.40;;;;;;;3.73;100.00;100762.16;5058434;28;20166;-75
2023/12/06 06:44:08;;;;;;;0.73;0.73;;;;;;;3.77;100.00;100764.03;5035802;28;20044;-75
2023/12/06 06:46:33;;;;;;;2.05;1.95;;;;;;;3.54;100.00;100698.38;5061415;28;20017;-74
2023/12/06 06:48:59;;;;;;;2.15;1.27;;;;;;;4.00;100.00;100769.06;5064664;28;20044;-75
2023/12/06 06:51:35;;;;;;;8.57;8.02;;;;;;;4.12;100.00;100766.88;5018702;28;20044;-75
2023/12/06 06:54:06;;;;;;;1.05;1.05;;;;;;;4.08;100.00;100766.75;5043570;28;20071;-71
2023/12/06 06:56:32;;;;;;;2.05;1.95;;;;;;;3.35;100.00;100649.34;5033613;28;20500;-74
2023/12/06 06:59:00;;;;;;;2.25;2.15;;;;;;;4.20;100.00;100785.31;5062467;28;20032;-76
2023/12/06 07:01:25;;;;;;;6.72;6.43;;;;;;;3.95;100.00;100742.09;5056268;28;20512;-75
2023/12/06 07:03:51;;;;;;;0.77;0.30;;;;;;;4.09;100.00;100768.50;5060793;28;20045;-75
2023/12/06 07:06:17;;;;;;;9.18;4.60;;;;;;;4.01;100.00;100750.06;5063781;28;20049;-75
2023/12/06 07:08:42;;;;;;;0.68;0.68;;;;;;;3.85;100.00;100682.94;5042129;28;20041;-77
2023/12/06 07:11:08;;;;;;;0.30;0.30;;;;;;;4.37;100.00;100785.81;5044530;28;20032;-79
2023/12/06 07:13:36;;;;;;;0.52;0.52;;;;;;;4.05;100.00;100700.03;5059449;28;20115;-73
2023/12/06 07:16:03;;;;;;;12.48;11.60;;;;;;;3.97;100.00;100714.47;5059213;28;20122;-74
2023/12/06 07:18:29;;;;;;;20.30;18.85;;;;;;;4.27;100.00;100731.84;5069585;28;20052;-75
2023/12/06 07:20:54;;;;;;;3.13;2.92;;;;;;;3.65;100.00;100627.78;5062502;28;20127;-77
2023/12/06 07:23:20;;;;;;;1.98;1.88;;;;;;;3.81;100.00;100641.28;5060265;28;20120;-76
2023/12/06 07:25:46;;;;;;;3.40;1.50;;;;;;;4.41;100.00;100721.00;5064650;28;20107;-75
2023/12/06 07:28:15;;;;;;;0.30;0.30;;;;;;;4.33;100.00;100674.84;5046949;28;20052;-75
2023/12/06 07:30:40;;;;;;;6.65;3.20;;;;;;;4.79;100.00;100749.84;5055405;28;20567;-75
2023/12/06 07:33:09;;;;;;;0.40;0.40;;;;;;;4.25;100.00;100634.81;5063231;28;20091;-73
2023/12/06 07:35:35;;;;;;;0.30;0.30;;;;;;;4.26;100.00;100640.06;5039454;28;20059;-75
2023/12/06 07:38:01;;;;;;;0.30;0.30;;;;;;;4.94;100.00;100749.41;5067004;28;20040;-74
2023/12/06 07:40:27;;;;;;;0.30;0.30;;;;;;;4.49;100.00;100679.66;5047257;28;20161;-75
2023/12/06 07:42:53;;;;;;;8.55;7.95;;;;;;;4.83;100.00;100720.50;5063357;28;20098;-78
2023/12/06 07:45:19;;;;;;;0.30;0.30;;;;;;;4.76;100.00;100735.88;5060249;28;20127;-79
2023/12/06 07:47:44;;;;;;;1.08;0.98;;;;;;;4.75;100.00;100728.91;5045801;28;20052;-75
2023/12/06 07:50:10;;;;;;;0.65;0.65;;;;;;;4.77;100.00;100730.72;5061182;28;20072;-76
2023/12/06 07:52:37;;;;;;;4.45;4.15;;;;;;;4.79;100.00;100729.03;5062798;28;20049;-76
2023/12/06 07:55:06;;;;;;;8.68;7.93;;;;;;;5.19;100.00;100744.88;5042960;28;20071;-76
2023/12/06 07:57:36;;;;;;;9.68;9.05;;;;;;;4.42;100.00;100642.25;5073340;28;20491;-75
2023/12/06 08:00:03;;;;;;;0.28;0.28;;;;;;;4.60;100.00;100666.97;5063047;28;20040;-74
2023/12/06 08:02:28;;;;;;;2.15;2.05;;;;;;;4.46;100.00;100637.13;5060826;28;20191;-75
2023/12/06 08:04:54;;;;;;;0.30;0.30;;;;;;;4.69;100.00;100728.75;5065079;28;20495;-76
2023/12/06 08:07:19;;;;;;;0.80;0.80;;;;;;;4.43;100.00;100643.13;5064610;28;20134;-76
2023/12/06 08:09:45;;;;;;;8.40;4.47;;;;;;;4.55;100.00;100660.78;5061040;28;20044;-76
2023/12/06 08:12:10;;;;;;;0.68;0.68;;;;;;;5.23;100.00;100741.53;5065070;28;20049;-74
2023/12/06 08:14:43;;;;;;;0.30;0.30;;;;;;;4.56;100.00;100618.34;5049804;28;20056;-74
2023/12/06 08:17:10;;;;;;;8.68;3.95;;;;;;;4.71;100.00;100664.69;5044758;28;20136;-79
2023/12/06 08:19:35;;;;;;;1.50;1.40;;;;;;;4.51;100.00;100633.81;5059218;28;20060;-74
2023/12/06 08:22:01;;;;;;;4.05;3.85;;;;;;;4.43;100.00;100659.59;5060367;28;20076;-73
2023/12/06 08:24:26;;;;;;;0.30;0.30;;;;;;;4.05;100.00;100621.22;5065233;28;20045;-81
2023/12/06 08:26:52;;;;;;;0.80;0.80;;;;;;;4.33;100.00;100661.88;5063556;28;20532;-75
2023/12/06 08:29:17;;;;;;;0.30;0.30;;;;;;;4.47;100.00;100646.69;5064834;28;20086;-73
2023/12/06 08:31:43;;;;;;;6.03;5.72;;;;;;;4.35;100.00;100635.09;5064929;28;20040;-75
2023/12/06 08:34:09;;;;;;;0.20;0.20;;;;;;;3.44;100.00;100482.75;5063481;28;20045;-75
2023/12/06 08:36:34;;;;;;;0.85;0.85;;;;;;;4.90;100.00;100707.69;5063832;28;20582;-75
2023/12/06 08:39:00;;;;;;;0.30;0.30;;;;;;;4.99;100.00;100708.81;5068128;28;20054;-74
2023/12/06 08:41:25;;;;;;;1.73;1.63;;;;;;;5.14;100.00;100712.66;5061000;28;20059;-76
2023/12/06 08:43:52;;;;;;;0.52;0.52;;;;;;;4.76;100.00;100663.97;5059705;28;20792;-74
2023/12/06 08:46:18;;;;;;;1.45;1.35;;;;;;;5.05;100.00;100703.75;5065001;28;20080;-78
2023/12/06 08:48:43;;;;;;;0.40;0.40;;;;;;;4.86;100.00;100611.38;5059748;28;20056;-76
2023/12/06 08:51:09;;;;;;;0.28;0.28;;;;;;;4.50;100.00;100587.91;5060239;28;20055;-74
2023/12/06 08:53:35;;;;;;;0.85;0.85;;;;;;;5.22;100.00;100656.50;5061552;28;20068;-75
2023/12/06 08:56:00;;;;;;;2.38;2.28;;;;;;;5.44;100.00;100660.53;5063982;28;20029;-75
2023/12/06 08:58:27;;;;;;;0.40;0.40;;;;;;;5.00;100.00;100580.53;5055677;28;20441;-76
2023/12/06 09:00:54;;;;;;;0.98;0.98;;;;;;;5.66;100.00;100652.38;5028123;28;20205;-74
2023/12/06 09:03:20;;;;;;;0.30;0.30;;;;;;;5.55;100.00;100659.09;5031579;28;20041;-80
2023/12/06 09:05:46;;;;;;;0.90;0.90;;;;;;;4.95;100.00;100553.53;5065032;28;20048;-74
2023/12/06 09:08:12;;;;;;;0.50;0.50;;;;;;;5.29;100.00;100546.53;5059355;28;20400;-74
2023/12/06 09:10:39;;;;;;;0.25;0.25;;;;;;;5.60;100.00;100574.19;5064886;28;20032;-76
2023/12/06 09:13:06;;;;;;;0.40;0.40;;;;;;;5.80;100.00;100628.41;5059426;28;20652;-74
2023/12/06 09:15:32;;;;;;;2.30;2.20;;;;;;;5.64;100.00;100637.56;5043349;28;20506;-75
2023/12/06 09:17:58;;;;;;;0.40;0.40;;;;;;;5.97;100.00;100634.94;5060579;28;20068;-75
2023/12/06 09:20:25;;;;;;;1.85;1.75;;;;;;;5.80;100.00;100564.19;5057836;28;20032;-78
2023/12/06 09:22:50;;;;;;;0.28;0.28;;;;;;;6.13;100.00;100604.84;5057863;28;20202;-75
2023/12/06 09:25:18;;;;;;;0.35;0.35;;;;;;;5.55;100.00;100521.16;5061629;28;20132;-75
2023/12/06 09:27:43;;;;;;;1.02;0.93;;;;;;;5.66;100.00;100501.41;5059987;28;20044;-75
2023/12/06 09:30:09;;;;;;;11.20;10.45;;;;;;;6.21;100.00;100551.19;5058886;28;20760;-75
2023/12/06 09:32:35;;;;;;;0.30;0.30;;;;;;;6.19;100.00;100503.38;5058255;28;20048;-75
2023/12/06 09:35:01;;;;;;;0.30;0.30;;;;;;;6.20;100.00;100554.63;5060401;28;20439;-75
2023/12/06 09:37:26;;;;;;;0.30;0.30;;;;;;;6.49;100.00;100599.53;5060978;28;20554;-74
2023/12/06 09:39:53;;;;;;;0.70;0.70;;;;;;;6.32;100.00;100580.97;5060036;28;20087;-75
2023/12/06 09:42:19;;;;;;;0.30;0.30;;;;;;;6.14;100.00;100591.00;5061520;28;20087;-77
2023/12/06 09:44:45;;;;;;;0.65;0.50;;;;;;;6.30;100.00;100576.56;5058446;28;20072;-73
2023/12/06 09:47:14;;;;;;;3.63;3.30;;;;;;;5.86;100.00;100563.47;5062498;28;20040;-75
2023/12/06 09:49:40;;;;;;;0.30;0.30;;;;;;;5.64;100.00;100543.88;5059301;28;20579;-75
2023/12/06 09:52:18;;;;;;;0.28;0.28;;;;;;;5.79;100.00;100543.34;5053730;28;20051;-75
2023/12/06 09:54:44;;;;;;;0.68;0.68;;;;;;;6.15;100.00;100556.28;5058938;28;20119;-73
2023/12/06 09:57:11;;;;;;;0.80;0.80;;;;;;;5.99;100.00;100478.66;5061026;28;20093;-75
2023/12/06 09:59:37;;;;;;;0.68;0.68;;;;;;;6.57;100.00;100562.28;5054671;28;20041;-74
2023/12/06 10:02:02;;;;;;;0.25;0.25;;;;;;;6.51;100.00;100548.31;5041220;28;20086;-75
2023/12/06 10:04:28;;;;;;;8.93;8.27;;;;;;;6.34;100.00;100534.06;5060292;28;20151;-73
2023/12/06 10:06:55;;;;;;;0.40;0.40;;;;;;;6.48;100.00;100536.94;5059581;28;20044;-76
2023/12/06 10:09:20;;;;;;;0.55;0.52;;;;;;;6.12;100.00;100531.03;5044423;28;20489;-76
2023/12/06 10:11:50;;;;;;;0.30;0.30;;;;;;;5.80;100.00;100473.06;5059158;28;20049;-75
2023/12/06 10:14:17;;;;;;;0.82;0.82;;;;;;;5.47;100.00;100416.00;5062966;28;20052;-75
2023/12/06 10:16:44;;;;;;;0.20;0.20;;;;;;;6.00;100.00;100511.69;5060248;28;20060;-74
2023/12/06 10:19:10;;;;;;;0.82;0.82;;;;;;;6.01;100.00;100503.03;5038457;28;20119;-76
2023/12/06 10:21:35;;;;;;;1.02;1.02;;;;;;;5.95;100.00;100535.03;5058704;28;20074;-75
2023/12/06 10:24:01;;;;;;;0.68;0.68;;;;;;;6.01;100.00;100537.75;5060975;28;20045;-75
2023/12/06 10:26:28;;;;;;;0.30;0.30;;;;;;;5.93;100.00;100524.53;5062606;28;22212;-74
2023/12/06 10:28:54;;;;;;;0.73;0.73;;;;;;;5.39;100.00;100435.78;5060766;28;20453;-78
2023/12/06 10:31:20;;;;;;;2.92;2.72;;;;;;;6.07;100.00;100543.09;5036144;28;20128;-78
2023/12/06 10:33:51;;;;;;;0.40;0.40;;;;;;;5.62;100.00;100535.16;5054663;28;20086;-76
2023/12/06 10:36:17;;;;;;;0.30;0.30;;;;;;;4.44;100.00;100388.53;5040368;28;20155;-76
2023/12/06 10:38:45;;;;;;;0.20;0.20;;;;;;;5.23;100.00;100525.59;5058938;28;20045;-75
2023/12/06 10:41:11;;;;;;;0.43;0.40;;;;;;;4.96;100.00;100523.22;5063046;28;20044;-75
2023/12/06 10:43:38;;;;;;;3.95;1.13;;;;;;;4.85;100.00;100504.78;5062583;28;20040;-76
2023/12/06 10:46:06;;;;;;;0.30;0.30;;;;;;;5.19;100.00;100540.25;5057397;28;20053;-75
2023/12/06 10:48:35;;;;;;;0.75;0.75;;;;;;;5.10;100.00;100549.56;5040895;28;21285;-76
2023/12/06 10:51:03;;;;;;;0.30;0.30;;;;;;;4.60;100.00;100453.91;5062052;28;20037;-75
2023/12/06 10:53:30;;;;;;;1.20;1.13;;;;;;;4.97;100.00;100509.38;5065281;28;20138;-77
2023/12/06 10:55:59;;;;;;;0.30;0.30;;;;;;;4.79;100.00;100435.28;5059848;28;20090;-74
2023/12/06 10:58:25;;;;;;;0.50;0.50;;;;;;;5.51;100.00;100547.94;5054523;28;20047;-75
2023/12/06 11:00:51;;;;;;;0.30;0.30;;;;;;;5.37;100.00;100533.72;5058896;28;20048;-76
2023/12/06 11:03:16;;;;;;;1.85;1.60;;;;;;;4.88;100.00;100449.38;5054382;28;20052;-76
2023/12/06 11:05:47;;;;;;;0.20;0.20;;;;;;;4.56;100.00;100452.91;5059052;28;20048;-75
2023/12/06 11:08:24;;;;;;;1.60;1.50;;;;;;;5.21;100.00;100580.19;5063261;28;20032;-74
2023/12/06 11:11:08;;;;;;;1.13;1.13;;;;;;;4.88;100.00;100486.63;5057673;28;20051;-78
2023/12/06 11:13:49;;;;;;;3.25;3.08;;;;;;;5.09;100.00;100569.50;5057543;28;20044;-77
2023/12/06 11:16:47;;;;;;;3.08;2.80;;;;;;;5.25;100.00;100561.22;5058138;28;20071;-75
2023/12/06 11:19:15;;;;;;;0.30;0.30;;;;;;;5.28;100.00;100544.81;5035119;28;20088;-78